| time (UTC) | temp C | wind direction | speed KPH | gust KPH | rain 1hr cm | rain 24hr cm | rain mn cm | humidity % | barometer mb |
| 20260831225528 | 25 | 104 | 8.0 | 17.7 | 0.00 | 3.17 | 3.17 | 68 | 1016.1 |
| 20260831225022 | 25 | 124 | 9.7 | 20.9 | 0.00 | 3.17 | 3.17 | 68 | 1016.3 |
| 20260831224517 | 25 | 99 | 8.0 | 22.5 | 0.00 | 3.17 | 3.17 | 70 | 1016.4 |
| 20260831224016 | 25 | 113 | 12.9 | 24.1 | 0.00 | 3.17 | 3.17 | 70 | 1016.4 |
| 20260831223530 | 25 | 104 | 12.9 | 22.5 | 0.00 | 3.17 | 3.17 | 70 | 1016.5 |
| 20260831223023 | 25 | 185 | 9.7 | 19.3 | 0.00 | 3.17 | 3.17 | 72 | 1016.7 |
| 20260831222517 | 25 | 140 | 6.4 | 19.3 | 0.00 | 3.17 | 3.17 | 75 | 1016.7 |
| 20260831222030 | 24 | 146 | 9.7 | 17.7 | 0.00 | 3.17 | 3.17 | 75 | 1016.7 |
| 20260831221524 | 24 | 136 | 8.0 | 17.7 | 0.00 | 3.17 | 3.17 | 75 | 1016.8 |
| 20260831221018 | 24 | 122 | 11.3 | 17.7 | 0.00 | 3.17 | 3.17 | 75 | 1016.9 |
| 20260831220532 | 24 | 112 | 8.0 | 17.7 | 0.00 | 3.17 | 3.17 | 77 | 1017.0 |
| 20260831220042 | 24 | 140 | 9.7 | 17.7 | 0.00 | 3.17 | 3.17 | 78 | 1017.1 |
| 20260831215520 | 23 | 122 | 8.0 | 17.7 | 0.00 | 3.17 | 3.17 | 79 | 1017.3 |
| 20260831215034 | 23 | 111 | 9.7 | 17.7 | 0.00 | 3.17 | 3.17 | 78 | 1017.4 |
| 20260831214528 | 23 | 133 | 9.7 | 17.7 | 0.00 | 3.17 | 3.17 | 80 | 1017.4 |
| 20260831214022 | 23 | 134 | 4.8 | 14.5 | 0.03 | 3.17 | 3.17 | 83 | 1017.5 |
| 20260831213516 | 23 | 204 | 4.8 | 9.7 | 0.03 | 3.17 | 3.17 | 85 | 1017.8 |
| 20260831213031 | 22 | 159 | 4.8 | 9.7 | 0.05 | 3.17 | 3.17 | 87 | 1018.2 |
| 20260831212525 | 22 | 191 | 4.8 | 9.7 | 0.08 | 3.17 | 3.17 | 90 | 1018.3 |
| 20260831212023 | 21 | 204 | 3.2 | 9.7 | 0.08 | 3.17 | 3.17 | 91 | 1018.3 |
| 20260831211517 | 21 | 200 | 3.2 | 8.0 | 0.13 | 3.17 | 3.17 | 92 | 1018.5 |
| 20260831211032 | 21 | 134 | 3.2 | 12.9 | 0.15 | 3.17 | 3.17 | 92 | 1018.6 |
| 20260831210525 | 20 | 206 | 3.2 | 14.5 | 0.18 | 3.17 | 3.17 | 92 | 1018.8 |
| 20260831210031 | 20 | 137 | 4.8 | 16.1 | 0.18 | 3.17 | 3.17 | 92 | 1019.1 |
| 20260831205531 | 20 | 142 | 6.4 | 16.1 | 0.20 | 3.17 | 3.17 | 92 | 1019.2 |
| 20260831205025 | 20 | 216 | 6.4 | 12.9 | 0.20 | 3.17 | 3.17 | 92 | 1019.5 |
| 20260831204523 | 20 | 173 | 3.2 | 16.1 | 0.23 | 3.17 | 3.17 | 92 | 1019.4 |
| 20260831204016 | 20 | 124 | 9.7 | 16.1 | 0.23 | 3.15 | 3.15 | 92 | 1019.3 |
| 20260831203530 | 20 | 92 | 8.0 | 12.9 | 0.25 | 3.15 | 3.15 | 92 | 1019.5 |
| 20260831203024 | 20 | 117 | 6.4 | 12.9 | 0.25 | 3.12 | 3.12 | 92 | 1019.9 |
| 20260831202518 | 20 | 130 | 6.4 | 9.7 | 0.23 | 3.10 | 3.10 | 92 | 1020.2 |
| 20260831202033 | 20 | 135 | 3.2 | 12.9 | 0.25 | 3.10 | 3.10 | 92 | 1020.4 |
| 20260831201527 | 20 | 135 | 6.4 | 12.9 | 0.20 | 3.05 | 3.05 | 93 | 1020.4 |
| 20260831201021 | 20 | 117 | 3.2 | 8.0 | 0.20 | 3.02 | 3.02 | 93 | 1020.7 |
| 20260831200519 | 20 | 129 | 3.2 | 12.9 | 0.18 | 3.00 | 3.00 | 93 | 1020.8 |
| 20260831200047 | 20 | 125 | 6.4 | 12.9 | 0.20 | 3.00 | 3.00 | 92 | 1020.7 |
| 20260831195527 | 20 | 135 | 6.4 | 12.9 | 0.18 | 2.97 | 2.97 | 93 | 1020.8 |
| 20260831195020 | 20 | 124 | 4.8 | 9.7 | 0.23 | 2.97 | 2.97 | 93 | 1020.9 |
| 20260831194514 | 20 | 177 | 4.8 | 11.3 | 0.23 | 2.95 | 2.95 | 93 | 1021.0 |
| 20260831194029 | 19 | 253 | 3.2 | 11.3 | 0.20 | 2.92 | 2.92 | 93 | 1021.2 |
| 20260831193524 | 20 | 254 | 4.8 | 11.3 | 0.20 | 2.90 | 2.90 | 93 | 1021.3 |
| 20260831193023 | 20 | 274 | 4.8 | 11.3 | 0.20 | 2.87 | 2.87 | 93 | 1021.3 |
| 20260831192517 | 20 | 312 | 1.6 | 8.0 | 0.23 | 2.87 | 2.87 | 93 | 1021.3 |
| 20260831192032 | 20 | 312 | 3.2 | 6.4 | 0.23 | 2.84 | 2.84 | 93 | 1021.3 |
| 20260831191526 | 20 | 313 | 3.2 | 4.8 | 0.23 | 2.84 | 2.84 | 93 | 1021.4 |
| 20260831191020 | 20 | 313 | 1.6 | 4.8 | 0.23 | 2.82 | 2.82 | 92 | 1021.3 |
| 20260831190515 | 20 | 314 | 1.6 | 8.0 | 0.38 | 2.82 | 2.82 | 93 | 1021.2 |
| 20260831190043 | 20 | 314 | 3.2 | 8.0 | 0.61 | 2.79 | 2.79 | 92 | 1021.4 |
| 20260831185522 | 20 | 314 | 1.6 | 4.8 | 0.74 | 2.79 | 2.79 | 92 | 1021.8 |
| 20260831185020 | 20 | 314 | 1.6 | 4.8 | 0.81 | 2.74 | 2.74 | 92 | 1021.8 |
| 20260831184514 | 20 | 314 | 0.0 | 3.2 | 0.81 | 2.72 | 2.72 | 92 | 1021.8 |
| 20260831184028 | 20 | 314 | 0.0 | 3.2 | 0.81 | 2.72 | 2.72 | 92 | 1021.9 |
| 20260831183522 | 20 | 314 | 0.0 | 1.6 | 0.79 | 2.69 | 2.69 | 92 | 1021.7 |
| 20260831183015 | 20 | 314 | 0.0 | 4.8 | 0.79 | 2.67 | 2.67 | 92 | 1021.7 |
| 20260831182529 | 20 | 314 | 1.6 | 8.0 | 0.76 | 2.64 | 2.64 | 92 | 1021.4 |
| 20260831182023 | 20 | 315 | 1.6 | 11.3 | 0.76 | 2.62 | 2.62 | 92 | 1021.4 |
| 20260831181521 | 20 | 295 | 4.8 | 12.9 | 0.91 | 2.62 | 2.62 | 92 | 1021.5 |
| 20260831181015 | 20 | 287 | 4.8 | 17.7 | 1.22 | 2.57 | 2.57 | 92 | 1021.6 |
| 20260831180529 | 20 | 289 | 6.4 | 17.7 | 1.19 | 2.44 | 2.44 | 92 | 1021.8 |
| 20260831180036 | 20 | 280 | 9.7 | 16.1 | 0.94 | 2.18 | 2.18 | 91 | 1021.8 |
| 20260831175515 | 20 | 299 | 3.2 | 8.0 | 0.79 | 2.03 | 2.03 | 91 | 1021.8 |
| 20260831175029 | 20 | 297 | 3.2 | 12.9 | 0.69 | 1.93 | 1.93 | 91 | 1021.8 |
| 20260831174523 | 20 | 296 | 3.2 | 12.9 | 0.66 | 1.91 | 1.91 | 91 | 1021.6 |
| 20260831174017 | 21 | 325 | 1.6 | 8.0 | 0.66 | 1.91 | 1.91 | 91 | 1021.6 |
| 20260831173515 | 21 | 325 | 3.2 | 8.0 | 0.66 | 1.91 | 1.91 | 91 | 1021.4 |
| 20260831173030 | 21 | 314 | 3.2 | 8.0 | 0.64 | 1.88 | 1.88 | 90 | 1021.2 |
| 20260831172524 | 21 | 304 | 1.6 | 4.8 | 0.64 | 1.88 | 1.88 | 90 | 1021.2 |
| 20260831172018 | 21 | 302 | 3.2 | 9.7 | 0.61 | 1.85 | 1.85 | 89 | 1021.2 |
| 20260831171532 | 21 | 290 | 3.2 | 16.1 | 0.46 | 1.70 | 1.70 | 87 | 1020.9 |
| 20260831171026 | 22 | 288 | 6.4 | 16.1 | 0.10 | 1.35 | 1.35 | 83 | 1020.7 |
| 20260831170521 | 23 | 295 | 4.8 | 16.1 | 0.00 | 1.24 | 1.24 | 80 | 1020.7 |
| 20260831170030 | 23 | 285 | 4.8 | 11.3 | 0.00 | 1.24 | 1.24 | 82 | 1020.7 |
| 20260831165529 | 23 | 315 | 1.6 | 14.5 | 0.00 | 1.24 | 1.24 | 81 | 1020.7 |
| 20260831165023 | 24 | 325 | 6.4 | 14.5 | 0.00 | 1.24 | 1.24 | 76 | 1020.3 |
| 20260831164517 | 24 | 297 | 3.2 | 11.3 | 0.00 | 1.24 | 1.24 | 74 | 1020.2 |
| 20260831164031 | 25 | 338 | 1.6 | 6.4 | 0.00 | 1.24 | 1.24 | 75 | 1019.9 |
| 20260831163525 | 25 | 354 | 1.6 | 6.4 | 0.00 | 1.24 | 1.24 | 75 | 1019.8 |
| 20260831163019 | 24 | 354 | 1.6 | 4.8 | 0.00 | 1.24 | 1.24 | 75 | 1019.9 |
| 20260831162533 | 24 | 354 | 1.6 | 8.0 | 0.00 | 1.24 | 1.24 | 76 | 1019.7 |
| 20260831162031 | 24 | 354 | 3.2 | 11.3 | 0.00 | 1.24 | 1.24 | 75 | 1019.7 |
| 20260831161525 | 25 | 354 | 1.6 | 11.3 | 0.00 | 1.24 | 1.24 | 76 | 1019.4 |
| 20260831161019 | 25 | 334 | 4.8 | 8.0 | 0.00 | 1.24 | 1.24 | 75 | 1019.3 |
| 20260831160532 | 25 | 323 | 3.2 | 9.7 | 0.00 | 1.24 | 1.24 | 76 | 1019.2 |
| 20260831160039 | 25 | 356 | 3.2 | 9.7 | 0.00 | 1.24 | 1.24 | 74 | 1019.0 |
| 20260831155518 | 25 | 4 | 4.8 | 9.7 | 0.00 | 1.24 | 1.24 | 74 | 1019.0 |
| 20260831155032 | 25 | 4 | 3.2 | 8.0 | 0.00 | 1.24 | 1.24 | 74 | 1018.9 |
| 20260831154526 | 25 | 4 | 4.8 | 8.0 | 0.00 | 1.24 | 1.24 | 73 | 1018.8 |
| 20260831154023 | 25 | 341 | 4.8 | 8.0 | 0.00 | 1.24 | 1.24 | 73 | 1018.7 |
| 20260831153517 | 25 | 329 | 3.2 | 9.7 | 0.00 | 1.24 | 1.24 | 75 | 1018.6 |
| 20260831153031 | 25 | 314 | 4.8 | 9.7 | 0.00 | 1.24 | 1.24 | 75 | 1018.5 |
| 20260831152524 | 25 | 310 | 1.6 | 6.4 | 0.00 | 1.24 | 1.24 | 78 | 1018.5 |
| 20260831152017 | 24 | 310 | 1.6 | 8.0 | 0.00 | 1.24 | 1.24 | 83 | 1018.5 |
| 20260831151531 | 23 | 310 | 3.2 | 4.8 | 0.00 | 1.24 | 1.24 | 82 | 1018.4 |
| 20260831151025 | 23 | 310 | 0.0 | 4.8 | 0.00 | 1.24 | 1.24 | 82 | 1018.5 |
| 20260831150523 | 23 | 310 | 0.0 | 8.0 | 0.00 | 1.24 | 1.24 | 85 | 1018.4 |
| 20260831150028 | 22 | 310 | 1.6 | 8.0 | 0.00 | 1.24 | 1.24 | 87 | 1018.2 |
| 20260831145529 | 22 | 312 | 4.8 | 9.7 | 0.00 | 1.24 | 1.24 | 87 | 1018.2 |
| 20260831145023 | 22 | 337 | 3.2 | 6.4 | 0.00 | 1.24 | 1.24 | 86 | 1018.0 |
| 20260831144517 | 23 | 19 | 1.6 | 4.8 | 0.00 | 1.24 | 1.24 | 86 | 1018.0 |
| 20260831144031 | 23 | 21 | 1.6 | 4.8 | 0.00 | 1.24 | 1.24 | 85 | 1018.0 |
| 20260831143525 | 23 | 21 | 0.0 | 4.8 | 0.00 | 1.24 | 1.24 | 84 | 1017.9 |
| 20260831143018 | 22 | 21 | 0.0 | 8.0 | 0.00 | 1.24 | 1.24 | 85 | 1017.9 |
| 20260831142516 | 22 | 21 | 3.2 | 9.7 | 0.03 | 1.24 | 1.24 | 84 | 1017.8 |
| 20260831142030 | 22 | 23 | 4.8 | 9.7 | 0.03 | 1.24 | 1.24 | 84 | 1017.9 |
| 20260831141524 | 21 | 298 | 0.0 | 6.4 | 0.03 | 1.24 | 1.24 | 86 | 1017.6 |
| 20260831141018 | 21 | 297 | 1.6 | 14.5 | 0.03 | 1.24 | 1.24 | 88 | 1017.7 |
| 20260831140532 | 21 | 296 | 4.8 | 14.5 | 0.03 | 1.24 | 1.24 | 88 | 1017.6 |
| 20260831140038 | 21 | 327 | 3.2 | 16.1 | 0.03 | 1.24 | 1.24 | 89 | 1017.6 |
| 20260831135517 | 21 | 280 | 4.8 | 16.1 | 0.03 | 1.24 | 1.24 | 90 | 1017.7 |
| 20260831135015 | 21 | 285 | 4.8 | 11.3 | 0.03 | 1.24 | 1.24 | 90 | 1017.7 |
| 20260831134530 | 21 | 284 | 3.2 | 16.1 | 0.03 | 1.24 | 1.24 | 90 | 1017.7 |
| 20260831134023 | 21 | 286 | 11.3 | 16.1 | 0.03 | 1.24 | 1.24 | 91 | 1017.8 |
| 20260831133517 | 21 | 274 | 6.4 | 16.1 | 0.03 | 1.24 | 1.24 | 90 | 1017.8 |
| 20260831133031 | 21 | 277 | 8.0 | 14.5 | 0.03 | 1.24 | 1.24 | 90 | 1017.8 |
| 20260831132525 | 21 | 277 | 8.0 | 12.9 | 0.00 | 1.22 | 1.22 | 90 | 1017.9 |
| 20260831132020 | 20 | 313 | 1.6 | 9.7 | 0.03 | 1.22 | 1.22 | 90 | 1017.8 |
| 20260831131513 | 20 | 342 | 3.2 | 17.7 | 0.03 | 1.22 | 1.22 | 91 | 1017.9 |
| 20260831131031 | 20 | 355 | 8.0 | 17.7 | 0.05 | 1.22 | 1.22 | 91 | 1018.0 |
| 20260831130525 | 20 | 333 | 3.2 | 8.0 | 0.28 | 1.22 | 1.22 | 91 | 1018.2 |
| 20260831130031 | 20 | 342 | 3.2 | 12.9 | 0.76 | 1.22 | 1.22 | 91 | 1018.3 |
| 20260831125531 | 20 | 291 | 4.8 | 11.3 | 1.09 | 1.22 | 1.22 | 91 | 1018.8 |
| 20260831125025 | 20 | 310 | 4.8 | 8.0 | 1.17 | 1.22 | 1.22 | 91 | 1018.7 |
| 20260831124519 | 20 | 354 | 3.2 | 12.9 | 1.17 | 1.22 | 1.22 | 91 | 1019.2 |
| 20260831124014 | 20 | 13 | 6.4 | 12.9 | 1.17 | 1.22 | 1.22 | 91 | 1018.4 |
| 20260831123528 | 20 | 25 | 6.4 | 14.5 | 1.17 | 1.22 | 1.22 | 91 | 1018.7 |
| 20260831123026 | 20 | 305 | 1.6 | 11.3 | 1.17 | 1.22 | 1.22 | 91 | 1018.6 |
| 20260831122520 | 20 | 335 | 4.8 | 17.7 | 1.17 | 1.22 | 1.22 | 90 | 1018.5 |
| 20260831122014 | 20 | 358 | 6.4 | 16.1 | 1.17 | 1.19 | 1.19 | 90 | 1018.5 |
| 20260831121528 | 20 | 355 | 6.4 | 16.1 | 1.19 | 1.19 | 1.19 | 90 | 1018.1 |
| 20260831121022 | 21 | 8 | 4.8 | 12.9 | 1.17 | 1.17 | 1.17 | 89 | 1018.2 |
| 20260831120516 | 21 | 311 | 1.6 | 8.0 | 0.86 | 0.86 | 0.89 | 88 | 1018.0 |
| 20260831120040 | 21 | 305 | 3.2 | 8.0 | 0.46 | 0.46 | 0.46 | 85 | 1018.2 |
| 20260831115524 | 22 | 308 | 3.2 | 11.3 | 0.13 | 0.13 | 0.13 | 82 | 1018.1 |
| 20260831115018 | 22 | 308 | 3.2 | 11.3 | 0.05 | 0.05 | 0.05 | 80 | 1017.6 |
| 20260831114532 | 22 | 293 | 4.8 | 25.7 | 0.05 | 0.05 | 0.05 | 78 | 1017.5 |
| 20260831114025 | 22 | 287 | 8.0 | 27.4 | 0.05 | 0.05 | 0.05 | 80 | 1017.5 |
| 20260831113520 | 22 | 261 | 12.9 | 27.4 | 0.05 | 0.05 | 0.05 | 82 | 1017.4 |
| 20260831113014 | 22 | 273 | 16.1 | 27.4 | 0.05 | 0.05 | 0.05 | 82 | 1017.0 |
| 20260831112528 | 22 | 264 | 16.1 | 27.4 | 0.05 | 0.05 | 0.05 | 83 | 1017.0 |
| 20260831112022 | 23 | 266 | 12.9 | 32.2 | 0.00 | 0.00 | 0.00 | 78 | 1016.9 |
| 20260831111015 | 23 | 248 | 20.9 | 40.2 | 0.00 | 0.00 | 0.00 | 69 | 1016.6 |
| 20260831110529 | 24 | 267 | 17.7 | 45.1 | 0.00 | 0.00 | 0.00 | 67 | 1016.7 |
| 20260831110034 | 25 | 240 | 19.3 | 45.1 | 0.00 | 0.00 | 0.00 | 63 | 1016.4 |
| 20260831105514 | 27 | 244 | 12.9 | 24.1 | 0.00 | 0.00 | 0.00 | 52 | 1016.4 |
| 20260831105028 | 27 | 329 | 6.4 | 9.7 | 0.00 | 0.00 | 0.00 | 52 | 1016.0 |
| 20260831104523 | 27 | 332 | 3.2 | 8.0 | 0.00 | 0.00 | 0.00 | 52 | 1015.5 |
| 20260831104022 | 27 | 359 | 1.6 | 6.4 | 0.00 | 0.00 | 0.00 | 52 | 1015.3 |
| 20260831103516 | 27 | 6 | 3.2 | 4.8 | 0.00 | 0.00 | 0.00 | 52 | 1015.1 |
| 20260831103029 | 27 | 6 | 1.6 | 4.8 | 0.00 | 0.00 | 0.00 | 52 | 1015.0 |
| 20260831102523 | 27 | 6 | 1.6 | 3.2 | 0.00 | 0.00 | 0.00 | 52 | 1015.0 |
| 20260831102017 | 27 | 6 | 1.6 | 4.8 | 0.00 | 0.00 | 0.00 | 52 | 1014.9 |
| 20260831101531 | 27 | 6 | 3.2 | 4.8 | 0.00 | 0.00 | 0.00 | 52 | 1014.9 |
| 20260831101025 | 27 | 6 | 0.0 | 3.2 | 0.00 | 0.00 | 0.00 | 52 | 1014.9 |
| 20260831100520 | 27 | 6 | 0.0 | 4.8 | 0.00 | 0.00 | 0.00 | 54 | 1014.9 |
| 20260831100030 | 27 | 6 | 1.6 | 4.8 | 0.00 | 0.00 | 0.00 | 55 | 1014.8 |
| 20260831095529 | 27 | 6 | 0.0 | 1.6 | 0.00 | 0.00 | 0.00 | 54 | 1014.9 |
| 20260831095023 | 27 | 6 | 0.0 | 1.6 | 0.00 | 0.00 | 0.00 | 54 | 1014.8 |
| 20260831094517 | 27 | 6 | 0.0 | 3.2 | 0.00 | 0.00 | 0.00 | 54 | 1014.8 |
| 20260831094031 | 27 | 6 | 0.0 | 3.2 | 0.00 | 0.00 | 0.00 | 56 | 1014.8 |
| 20260831093524 | 27 | 6 | 0.0 | 1.6 | 0.00 | 0.00 | 0.00 | 54 | 1014.7 |
| 20260831093019 | 27 | 6 | 0.0 | 1.6 | 0.00 | 0.00 | 0.00 | 54 | 1014.5 |
| 20260831092517 | 27 | 6 | 0.0 | 1.6 | 0.00 | 0.00 | 0.00 | 54 | 1014.6 |
| 20260831092032 | 27 | 6 | 0.0 | 1.6 | 0.00 | 0.00 | 0.00 | 54 | 1014.6 |
| 20260831091527 | 27 | 6 | 0.0 | 3.2 | 0.00 | 0.00 | 0.00 | 55 | 1014.6 |
| 20260831091022 | 27 | 6 | 1.6 | 4.8 | 0.00 | 0.00 | 0.00 | 54 | 1014.7 |
| 20260831090516 | 27 | 6 | 1.6 | 3.2 | 0.00 | 0.00 | 0.00 | 54 | 1014.9 |
| 20260831090045 | 27 | 6 | 1.6 | 3.2 | 0.00 | 0.00 | 0.00 | 54 | 1014.9 |
| 20260831085525 | 27 | 6 | 0.0 | 1.6 | 0.00 | 0.00 | 0.00 | 54 | 1014.9 |
| 20260831085019 | 27 | 6 | 0.0 | 3.2 | 0.00 | 0.00 | 0.00 | 55 | 1014.9 |
| 20260831084517 | 27 | 6 | 1.6 | 3.2 | 0.00 | 0.00 | 0.00 | 55 | 1015.0 |
| 20260831084032 | 27 | 6 | 1.6 | 3.2 | 0.00 | 0.00 | 0.00 | 55 | 1014.9 |
| 20260831083525 | 27 | 6 | 1.6 | 3.2 | 0.00 | 0.00 | 0.00 | 55 | 1015.1 |
| 20260831083019 | 27 | 6 | 1.6 | 3.2 | 0.00 | 0.00 | 0.00 | 55 | 1015.0 |
| 20260831082513 | 27 | 6 | 0.0 | 1.6 | 0.00 | 0.00 | 0.00 | 53 | 1014.9 |
| 20260831082027 | 27 | 6 | 0.0 | 1.6 | 0.00 | 0.00 | 0.00 | 55 | 1015.0 |
| 20260831081522 | 27 | 6 | 0.0 | 1.6 | 0.00 | 0.00 | 0.00 | 55 | 1015.0 |
| 20260831081019 | 27 | 6 | 0.0 | 3.2 | 0.00 | 0.00 | 0.00 | 53 | 1015.1 |
| 20260831080514 | 27 | 6 | 1.6 | 3.2 | 0.00 | 0.00 | 0.00 | 53 | 1015.0 |
| 20260831080042 | 28 | 6 | 0.0 | 1.6 | 0.00 | 0.00 | 0.00 | 52 | 1015.1 |
| 20260831075022 | 28 | 6 | 0.0 | 0.0 | 0.00 | 0.00 | 0.00 | 52 | 1015.1 |
| 20260831074517 | 28 | 6 | 0.0 | 0.0 | 0.00 | 0.00 | 0.00 | 52 | 1015.1 |
| 20260831074031 | 28 | 6 | 0.0 | 0.0 | 0.00 | 0.00 | 0.00 | 51 | 1015.2 |
| 20260831073526 | 28 | 6 | 0.0 | 0.0 | 0.00 | 0.00 | 0.00 | 50 | 1015.1 |
| 20260831073024 | 28 | 6 | 0.0 | 0.0 | 0.00 | 0.00 | 0.00 | 51 | 1015.1 |
| 20260831072520 | 28 | 6 | 0.0 | 1.6 | 0.00 | 0.00 | 0.00 | 50 | 1015.2 |
| 20260831072014 | 28 | 6 | 0.0 | 1.6 | 0.00 | 0.00 | 0.00 | 50 | 1015.2 |
| 20260831071529 | 28 | 6 | 0.0 | 1.6 | 0.00 | 0.00 | 0.00 | 49 | 1015.3 |
| 20260831071023 | 28 | 6 | 0.0 | 3.2 | 0.00 | 0.00 | 0.00 | 50 | 1015.1 |
| 20260831070518 | 28 | 6 | 0.0 | 3.2 | 0.00 | 0.00 | 0.00 | 49 | 1015.2 |
| 20260831070045 | 29 | 6 | 0.0 | 3.2 | 0.00 | 0.00 | 0.00 | 48 | 1015.2 |
| 20260831065529 | 29 | 6 | 0.0 | 3.2 | 0.00 | 0.00 | 0.00 | 48 | 1015.2 |
| 20260831065024 | 29 | 6 | 1.6 | 3.2 | 0.00 | 0.00 | 0.00 | 47 | 1015.4 |
| 20260831064518 | 30 | 6 | 1.6 | 6.4 | 0.00 | 0.00 | 0.00 | 46 | 1015.6 |
| 20260831064013 | 29 | 7 | 3.2 | 6.4 | 0.00 | 0.00 | 0.00 | 46 | 1015.4 |
| 20260831063527 | 29 | 8 | 1.6 | 4.8 | 0.00 | 0.00 | 0.00 | 48 | 1015.5 |
| 20260831063022 | 29 | 8 | 3.2 | 4.8 | 0.00 | 0.00 | 0.00 | 48 | 1015.5 |
| 20260831062516 | 29 | 9 | 1.6 | 3.2 | 0.00 | 0.00 | 0.00 | 48 | 1015.5 |
| 20260831062014 | 29 | 9 | 3.2 | 4.8 | 0.00 | 0.00 | 0.00 | 48 | 1015.5 |
| 20260831061529 | 29 | 9 | 0.0 | 4.8 | 0.00 | 0.00 | 0.00 | 48 | 1015.5 |
| 20260831061023 | 29 | 9 | 1.6 | 3.2 | 0.00 | 0.00 | 0.00 | 48 | 1015.5 |
| 20260831060517 | 29 | 9 | 1.6 | 3.2 | 0.00 | 0.00 | 0.00 | 47 | 1015.7 |
| 20260831060044 | 29 | 9 | 1.6 | 4.8 | 0.00 | 0.00 | 0.00 | 47 | 1015.5 |
| 20260831055524 | 30 | 9 | 1.6 | 8.0 | 0.00 | 0.00 | 0.00 | 46 | 1015.4 |
| 20260831055019 | 30 | 9 | 3.2 | 9.7 | 0.00 | 0.00 | 0.00 | 46 | 1015.3 |
| 20260831054514 | 30 | 11 | 4.8 | 9.7 | 0.00 | 0.00 | 0.00 | 45 | 1015.3 |
| 20260831054032 | 30 | 4 | 4.8 | 9.7 | 0.00 | 0.00 | 0.00 | 44 | 1015.4 |
| 20260831053526 | 30 | 6 | 3.2 | 9.7 | 0.00 | 0.00 | 0.00 | 44 | 1015.3 |
| 20260831053020 | 30 | 6 | 3.2 | 8.0 | 0.00 | 0.00 | 0.00 | 43 | 1015.2 |
| 20260831052515 | 30 | 33 | 0.0 | 6.4 | 0.00 | 0.00 | 0.00 | 43 | 1015.0 |
| 20260831052029 | 30 | 33 | 3.2 | 12.9 | 0.00 | 0.00 | 0.00 | 43 | 1015.0 |
| 20260831051523 | 31 | 33 | 4.8 | 12.9 | 0.00 | 0.00 | 0.00 | 42 | 1014.9 |
| 20260831051017 | 30 | 6 | 4.8 | 11.3 | 0.00 | 0.00 | 0.00 | 42 | 1014.9 |
| 20260831050516 | 31 | 6 | 6.4 | 11.3 | 0.00 | 0.00 | 0.00 | 41 | 1014.7 |
| 20260831050042 | 31 | 360 | 1.6 | 11.3 | 0.00 | 0.00 | 0.00 | 41 | 1014.8 |
| 20260831045522 | 31 | 2 | 4.8 | 9.7 | 0.00 | 0.00 | 0.00 | 41 | 1014.8 |
| 20260831045016 | 31 | 13 | 6.4 | 9.7 | 0.00 | 0.00 | 0.00 | 40 | 1014.8 |
| 20260831044530 | 31 | 329 | 3.2 | 27.4 | 0.00 | 0.00 | 0.00 | 43 | 1014.7 |
| 20260831044104 | 31 | 277 | 9.7 | 27.4 | 0.00 | 0.00 | 0.00 | 43 | 1014.6 |
| 20260831043514 | 31 | 271 | 12.9 | 25.7 | 0.00 | 0.00 | 0.00 | 43 | 1014.6 |
| 20260831043028 | 31 | 260 | 11.3 | 27.4 | 0.00 | 0.00 | 0.00 | 43 | 1014.5 |
| 20260831042523 | 31 | 260 | 14.5 | 27.4 | 0.00 | 0.00 | 0.00 | 43 | 1014.6 |
| 20260831042021 | 31 | 292 | 9.7 | 22.5 | 0.00 | 0.00 | 0.00 | 42 | 1014.7 |
| 20260831041516 | 31 | 267 | 11.3 | 22.5 | 0.00 | 0.00 | 0.00 | 42 | 1014.6 |
| 20260831041030 | 31 | 276 | 11.3 | 24.1 | 0.00 | 0.00 | 0.00 | 42 | 1014.6 |
| 20260831040524 | 31 | 265 | 14.5 | 30.6 | 0.00 | 0.00 | 0.00 | 41 | 1014.5 |
| 20260831040030 | 31 | 289 | 9.7 | 30.6 | 0.00 | 0.00 | 0.00 | 40 | 1014.5 |
| 20260831035530 | 31 | 271 | 9.7 | 22.5 | 0.00 | 0.00 | 0.00 | 39 | 1014.5 |
| 20260831035025 | 31 | 283 | 8.0 | 30.6 | 0.00 | 0.00 | 0.00 | 39 | 1014.4 |
| 20260831034520 | 32 | 252 | 16.1 | 30.6 | 0.00 | 0.00 | 0.00 | 40 | 1014.2 |
| 20260831034019 | 32 | 254 | 12.9 | 22.5 | 0.00 | 0.00 | 0.00 | 40 | 1014.3 |
| 20260831033513 | 32 | 274 | 12.9 | 25.7 | 0.00 | 0.00 | 0.00 | 40 | 1014.1 |
| 20260831033028 | 32 | 277 | 16.1 | 25.7 | 0.00 | 0.00 | 0.00 | 40 | 1014.0 |
| 20260831032522 | 32 | 279 | 12.9 | 27.4 | 0.00 | 0.00 | 0.00 | 40 | 1014.0 |
| 20260831032017 | 32 | 261 | 14.5 | 33.8 | 0.00 | 0.00 | 0.00 | 40 | 1013.9 |
| 20260831031512 | 32 | 267 | 19.3 | 35.4 | 0.00 | 0.00 | 0.00 | 39 | 1013.7 |
| 20260831031026 | 32 | 263 | 19.3 | 35.4 | 0.00 | 0.00 | 0.00 | 39 | 1013.5 |
| 20260831030525 | 32 | 229 | 17.7 | 27.4 | 0.00 | 0.00 | 0.00 | 39 | 1013.5 |
| 20260831030030 | 32 | 238 | 14.5 | 29.0 | 0.00 | 0.00 | 0.00 | 38 | 1013.4 |
| 20260831025531 | 32 | 271 | 9.7 | 30.6 | 0.00 | 0.00 | 0.00 | 38 | 1013.4 |
| 20260831025026 | 32 | 264 | 12.9 | 30.6 | 0.00 | 0.00 | 0.00 | 38 | 1013.5 |
| 20260831024520 | 33 | 258 | 12.9 | 29.0 | 0.00 | 0.00 | 0.00 | 37 | 1013.4 |
| 20260831024015 | 33 | 288 | 11.3 | 19.3 | 0.00 | 0.00 | 0.00 | 36 | 1013.4 |
| 20260831023529 | 33 | 266 | 11.3 | 20.9 | 0.00 | 0.00 | 0.00 | 36 | 1013.0 |
| 20260831023024 | 33 | 283 | 9.7 | 16.1 | 0.00 | 0.00 | 0.00 | 35 | 1013.1 |
| 20260831022522 | 34 | 277 | 6.4 | 16.1 | 0.00 | 0.00 | 0.00 | 35 | 1013.0 |
| 20260831022017 | 34 | 287 | 6.4 | 11.3 | 0.00 | 0.00 | 0.00 | 34 | 1012.8 |
| 20260831021512 | 34 | 287 | 4.8 | 11.3 | 0.00 | 0.00 | 0.00 | 34 | 1012.8 |
| 20260831021026 | 34 | 289 | 3.2 | 12.9 | 0.00 | 0.00 | 0.00 | 34 | 1012.6 |
| 20260831020518 | 34 | 289 | 3.2 | 11.3 | 0.00 | 0.00 | 0.00 | 34 | 1012.6 |
| 20260831020044 | 34 | 304 | 4.8 | 8.0 | 0.00 | 0.00 | 0.00 | 33 | 1012.5 |
| 20260831015524 | 35 | 308 | 3.2 | 6.4 | 0.00 | 0.00 | 0.00 | 33 | 1012.4 |
| 20260831015023 | 35 | 312 | 3.2 | 8.0 | 0.00 | 0.00 | 0.00 | 32 | 1012.4 |
| 20260831014517 | 35 | 331 | 3.2 | 6.4 | 0.00 | 0.00 | 0.00 | 32 | 1012.3 |
| 20260831014031 | 35 | 331 | 4.8 | 8.0 | 0.00 | 0.00 | 0.00 | 32 | 1012.4 |
| 20260831013526 | 35 | 332 | 3.2 | 8.0 | 0.00 | 0.00 | 0.00 | 32 | 1012.3 |
| 20260831013021 | 35 | 333 | 3.2 | 6.4 | 0.00 | 0.00 | 0.00 | 32 | 1012.3 |
| 20260831012514 | 35 | 337 | 1.6 | 4.8 | 0.00 | 0.00 | 0.00 | 32 | 1012.3 |
| 20260831012028 | 35 | 340 | 1.6 | 4.8 | 0.00 | 0.00 | 0.00 | 32 | 1012.3 |
| 20260831011523 | 35 | 340 | 1.6 | 4.8 | 0.00 | 0.00 | 0.00 | 31 | 1012.3 |
| 20260831011022 | 35 | 340 | 1.6 | 4.8 | 0.00 | 0.00 | 0.00 | 32 | 1012.1 |
| 20260831010517 | 35 | 340 | 1.6 | 6.4 | 0.00 | 0.00 | 0.00 | 32 | 1012.3 |
| 20260831010026 | 35 | 331 | 3.2 | 8.0 | 0.00 | 0.00 | 0.00 | 31 | 1012.2 |
| 20260831005525 | 35 | 356 | 1.6 | 4.8 | 0.00 | 0.00 | 0.00 | 31 | 1012.1 |
| 20260831005020 | 35 | 356 | 1.6 | 11.3 | 0.00 | 0.00 | 0.00 | 30 | 1012.2 |
| 20260831004515 | 35 | 356 | 3.2 | 12.9 | 0.00 | 0.00 | 0.00 | 30 | 1012.2 |
| 20260831004030 | 36 | 346 | 3.2 | 12.9 | 0.00 | 0.00 | 0.00 | 30 | 1012.1 |
| 20260831003529 | 36 | 359 | 3.2 | 9.7 | 0.00 | 0.00 | 0.00 | 30 | 1012.0 |
| 20260831003023 | 36 | 344 | 4.8 | 9.7 | 0.00 | 0.00 | 0.00 | 30 | 1012.1 |
| 20260831002517 | 36 | 309 | 3.2 | 9.7 | 0.00 | 0.00 | 0.00 | 30 | 1012.2 |
| 20260831002031 | 36 | 352 | 3.2 | 11.3 | 0.00 | 0.00 | 0.00 | 30 | 1012.3 |
| 20260831001526 | 36 | 19 | 4.8 | 8.0 | 0.00 | 0.00 | 0.00 | 30 | 1012.3 |
| 20260831001020 | 36 | 344 | 4.8 | 8.0 | 0.00 | 0.00 | 0.00 | 30 | 1012.3 |
| 20260831000516 | 36 | 356 | 3.2 | 9.7 | 0.00 | 0.00 | 0.00 | 30 | 1012.1 |
| 20260831000027 | 36 | 351 | 3.2 | 12.9 | 0.00 | 0.00 | 0.00 | 30 | 1012.3 |
| 20260830235527 | 36 | 360 | 4.8 | 12.9 | 0.00 | 0.00 | 0.00 | 30 | 1012.3 |
| 20260830235023 | 36 | 360 | 4.8 | 8.0 | 0.00 | 0.00 | 0.00 | 29 | 1012.3 |
| 20260830233529 | 36 | 312 | 3.2 | 6.4 | 0.00 | 0.00 | 0.00 | 29 | 1012.1 |
| 20260830233025 | 36 | 309 | 1.6 | 8.0 | 0.00 | 0.00 | 0.00 | 31 | 1012.3 |
| 20260830232521 | 36 | 308 | 3.2 | 9.7 | 0.00 | 0.00 | 0.00 | 29 | 1012.4 |
| 20260830232016 | 36 | 336 | 3.2 | 11.3 | 0.00 | 0.00 | 0.00 | 29 | 1012.4 |
| 20260830231516 | 36 | 307 | 1.6 | 6.4 | 0.00 | 0.00 | 0.00 | 30 | 1012.5 |
| 20260830231032 | 37 | 307 | 3.2 | 6.4 | 0.00 | 0.00 | 0.00 | 29 | 1012.6 |
| 20260830230529 | 37 | 294 | 3.2 | 8.0 | 0.00 | 0.00 | 0.00 | 29 | 1012.7 |
| 20260830230036 | 36 | 294 | 4.8 | 11.3 | 0.00 | 0.00 | 0.00 | 30 | 1012.8 |